sensor_id;sensor_type;location;lat;lon;timestamp;temperature;humidity
23713;DHT22;12035;49.978;8.298;2024-01-25T00:04:51;12.50;66.40
23713;DHT22;12035;49.978;8.298;2024-01-25T00:09:48;12.40;66.50
23713;DHT22;12035;49.978;8.298;2024-01-25T00:14:45;12.40;66.70
23713;DHT22;12035;49.978;8.298;2024-01-25T00:19:43;12.30;66.80
23713;DHT22;12035;49.978;8.298;2024-01-25T00:24:40;12.30;66.90
23713;DHT22;12035;49.978;8.298;2024-01-25T00:29:37;12.20;66.90
23713;DHT22;12035;49.978;8.298;2024-01-25T00:34:34;12.20;67.00
23713;DHT22;12035;49.978;8.298;2024-01-25T00:39:33;12.20;66.90
23713;DHT22;12035;49.978;8.298;2024-01-25T00:44:31;12.10;67.00
23713;DHT22;12035;49.978;8.298;2024-01-25T00:49:29;12.10;67.00
23713;DHT22;12035;49.978;8.298;2024-01-25T00:54:26;12.00;67.00
23713;DHT22;12035;49.978;8.298;2024-01-25T00:59:26;12.00;67.20
23713;DHT22;12035;49.978;8.298;2024-01-25T01:04:24;12.00;67.30
23713;DHT22;12035;49.978;8.298;2024-01-25T01:09:21;12.00;67.60
23713;DHT22;12035;49.978;8.298;2024-01-25T01:14:18;11.90;67.70
23713;DHT22;12035;49.978;8.298;2024-01-25T01:19:16;12.00;67.80
23713;DHT22;12035;49.978;8.298;2024-01-25T01:24:13;12.00;67.90
23713;DHT22;12035;49.978;8.298;2024-01-25T01:29:10;12.00;67.90
23713;DHT22;12035;49.978;8.298;2024-01-25T01:34:07;12.00;68.00
23713;DHT22;12035;49.978;8.298;2024-01-25T01:39:05;12.00;68.00
23713;DHT22;12035;49.978;8.298;2024-01-25T01:44:02;12.00;67.90
23713;DHT22;12035;49.978;8.298;2024-01-25T01:48:59;12.10;67.90
23713;DHT22;12035;49.978;8.298;2024-01-25T01:53:57;12.00;67.80
23713;DHT22;12035;49.978;8.298;2024-01-25T01:58:58;12.10;68.00
23713;DHT22;12035;49.978;8.298;2024-01-25T02:03:56;12.00;68.10
23713;DHT22;12035;49.978;8.298;2024-01-25T02:08:53;12.00;68.00
23713;DHT22;12035;49.978;8.298;2024-01-25T02:13:54;11.90;68.00
23713;DHT22;12035;49.978;8.298;2024-01-25T02:18:53;11.90;68.10
23713;DHT22;12035;49.978;8.298;2024-01-25T02:23:54;11.80;68.20
23713;DHT22;12035;49.978;8.298;2024-01-25T02:28:51;11.80;68.30
23713;DHT22;12035;49.978;8.298;2024-01-25T02:33:48;11.80;68.40
23713;DHT22;12035;49.978;8.298;2024-01-25T02:38:44;11.80;68.40
23713;DHT22;12035;49.978;8.298;2024-01-25T02:43:43;11.70;68.30
23713;DHT22;12035;49.978;8.298;2024-01-25T02:48:40;11.70;68.50
23713;DHT22;12035;49.978;8.298;2024-01-25T02:53:37;11.70;68.70
23713;DHT22;12035;49.978;8.298;2024-01-25T02:58:34;11.70;68.80
23713;DHT22;12035;49.978;8.298;2024-01-25T03:03:32;11.70;68.90
23713;DHT22;12035;49.978;8.298;2024-01-25T03:08:29;11.70;69.00
23713;DHT22;12035;49.978;8.298;2024-01-25T03:13:26;11.70;68.90
23713;DHT22;12035;49.978;8.298;2024-01-25T03:18:23;11.60;69.00
23713;DHT22;12035;49.978;8.298;2024-01-25T03:23:21;11.60;68.80
23713;DHT22;12035;49.978;8.298;2024-01-25T03:28:18;11.60;69.10
23713;DHT22;12035;49.978;8.298;2024-01-25T03:33:15;11.60;69.20
23713;DHT22;12035;49.978;8.298;2024-01-25T03:38:12;11.60;69.40
23713;DHT22;12035;49.978;8.298;2024-01-25T03:43:10;11.60;69.40
23713;DHT22;12035;49.978;8.298;2024-01-25T03:48:07;11.70;69.50
23713;DHT22;12035;49.978;8.298;2024-01-25T03:53:04;11.70;69.50
23713;DHT22;12035;49.978;8.298;2024-01-25T03:58:03;11.70;69.40
23713;DHT22;12035;49.978;8.298;2024-01-25T04:03:01;11.80;69.40
23713;DHT22;12035;49.978;8.298;2024-01-25T04:07:58;11.70;69.40
23713;DHT22;12035;49.978;8.298;2024-01-25T04:12:55;11.80;69.50
23713;DHT22;12035;49.978;8.298;2024-01-25T04:17:52;11.80;69.50
23713;DHT22;12035;49.978;8.298;2024-01-25T04:22:52;11.80;69.50
23713;DHT22;12035;49.978;8.298;2024-01-25T04:27:49;11.80;69.50
23713;DHT22;12035;49.978;8.298;2024-01-25T04:32:46;11.80;69.50
23713;DHT22;12035;49.978;8.298;2024-01-25T04:37:43;11.80;69.60
23713;DHT22;12035;49.978;8.298;2024-01-25T04:42:42;11.70;69.50
23713;DHT22;12035;49.978;8.298;2024-01-25T04:47:39;11.60;69.60
23713;DHT22;12035;49.978;8.298;2024-01-25T04:52:36;11.60;69.60
23713;DHT22;12035;49.978;8.298;2024-01-25T04:57:33;11.60;69.70
23713;DHT22;12035;49.978;8.298;2024-01-25T05:02:31;11.50;69.90
23713;DHT22;12035;49.978;8.298;2024-01-25T05:07:28;11.50;70.00
23713;DHT22;12035;49.978;8.298;2024-01-25T05:12:25;11.40;70.10
23713;DHT22;12035;49.978;8.298;2024-01-25T05:17:22;11.40;70.50
23713;DHT22;12035;49.978;8.298;2024-01-25T05:22:20;11.30;70.50
23713;DHT22;12035;49.978;8.298;2024-01-25T05:27:17;11.30;70.70
23713;DHT22;12035;49.978;8.298;2024-01-25T05:32:14;11.30;70.70
23713;DHT22;12035;49.978;8.298;2024-01-25T05:37:11;11.30;71.00
23713;DHT22;12035;49.978;8.298;2024-01-25T05:42:10;11.30;71.00
23713;DHT22;12035;49.978;8.298;2024-01-25T05:47:07;11.20;71.20
23713;DHT22;12035;49.978;8.298;2024-01-25T05:52:04;11.20;71.20
23713;DHT22;12035;49.978;8.298;2024-01-25T05:57:02;11.10;71.40
23713;DHT22;12035;49.978;8.298;2024-01-25T06:02:01;11.00;71.60
23713;DHT22;12035;49.978;8.298;2024-01-25T06:06:58;10.90;71.90
23713;DHT22;12035;49.978;8.298;2024-01-25T06:11:54;10.90;72.10
23713;DHT22;12035;49.978;8.298;2024-01-25T06:16:51;10.80;71.70
23713;DHT22;12035;49.978;8.298;2024-01-25T06:21:49;10.70;72.10
23713;DHT22;12035;49.978;8.298;2024-01-25T06:26:46;10.70;71.90
23713;DHT22;12035;49.978;8.298;2024-01-25T06:31:44;10.60;72.40
23713;DHT22;12035;49.978;8.298;2024-01-25T06:36:41;10.60;72.70
23713;DHT22;12035;49.978;8.298;2024-01-25T06:41:40;10.60;72.90
23713;DHT22;12035;49.978;8.298;2024-01-25T06:46:37;10.50;73.00
23713;DHT22;12035;49.978;8.298;2024-01-25T06:51:34;10.50;73.10
23713;DHT22;12035;49.978;8.298;2024-01-25T06:56:31;10.50;73.20
23713;DHT22;12035;49.978;8.298;2024-01-25T07:01:31;10.40;73.20
23713;DHT22;12035;49.978;8.298;2024-01-25T07:06:28;10.40;73.50
23713;DHT22;12035;49.978;8.298;2024-01-25T07:11:25;10.40;73.50
23713;DHT22;12035;49.978;8.298;2024-01-25T07:16:22;10.40;73.70
23713;DHT22;12035;49.978;8.298;2024-01-25T07:21:20;10.40;73.90
23713;DHT22;12035;49.978;8.298;2024-01-25T07:26:17;10.30;73.90
23713;DHT22;12035;49.978;8.298;2024-01-25T07:31:15;10.30;73.90
23713;DHT22;12035;49.978;8.298;2024-01-25T07:36:12;10.30;74.00
23713;DHT22;12035;49.978;8.298;2024-01-25T07:41:10;10.40;74.10
23713;DHT22;12035;49.978;8.298;2024-01-25T07:46:07;10.40;74.20
23713;DHT22;12035;49.978;8.298;2024-01-25T07:51:10;10.40;74.30
23713;DHT22;12035;49.978;8.298;2024-01-25T07:56:10;10.50;74.70
23713;DHT22;12035;49.978;8.298;2024-01-25T08:01:07;10.60;74.60
23713;DHT22;12035;49.978;8.298;2024-01-25T08:06:04;10.70;74.50
23713;DHT22;12035;49.978;8.298;2024-01-25T08:11:01;10.80;74.30
23713;DHT22;12035;49.978;8.298;2024-01-25T08:16:01;10.90;74.20
23713;DHT22;12035;49.978;8.298;2024-01-25T08:20:58;11.00;74.20
23713;DHT22;12035;49.978;8.298;2024-01-25T08:25:56;11.00;74.10
23713;DHT22;12035;49.978;8.298;2024-01-25T08:30:53;11.10;74.00
23713;DHT22;12035;49.978;8.298;2024-01-25T08:35:51;11.20;73.90
23713;DHT22;12035;49.978;8.298;2024-01-25T08:40:48;11.20;73.90
23713;DHT22;12035;49.978;8.298;2024-01-25T08:45:45;11.30;74.00
23713;DHT22;12035;49.978;8.298;2024-01-25T08:50:42;11.40;74.00
23713;DHT22;12035;49.978;8.298;2024-01-25T08:55:41;11.50;73.90
23713;DHT22;12035;49.978;8.298;2024-01-25T09:00:38;11.60;73.70
23713;DHT22;12035;49.978;8.298;2024-01-25T09:05:34;11.70;73.50
23713;DHT22;12035;49.978;8.298;2024-01-25T09:10:36;11.70;73.30
23713;DHT22;12035;49.978;8.298;2024-01-25T09:15:34;11.80;73.30
23713;DHT22;12035;49.978;8.298;2024-01-25T09:20:31;11.90;73.20
23713;DHT22;12035;49.978;8.298;2024-01-25T09:25:28;11.90;73.10
23713;DHT22;12035;49.978;8.298;2024-01-25T09:30:25;12.00;73.10
23713;DHT22;12035;49.978;8.298;2024-01-25T09:35:25;12.10;73.00
23713;DHT22;12035;49.978;8.298;2024-01-25T09:40:22;12.10;72.80
23713;DHT22;12035;49.978;8.298;2024-01-25T09:45:19;12.20;72.90
23713;DHT22;12035;49.978;8.298;2024-01-25T09:50:16;12.30;72.90
23713;DHT22;12035;49.978;8.298;2024-01-25T09:55:15;12.40;73.70
23713;DHT22;12035;49.978;8.298;2024-01-25T10:00:15;12.60;72.70
23713;DHT22;12035;49.978;8.298;2024-01-25T10:05:13;12.70;72.30
23713;DHT22;12035;49.978;8.298;2024-01-25T10:10:11;12.90;72.90
23713;DHT22;12035;49.978;8.298;2024-01-25T10:15:11;12.90;71.60
23713;DHT22;12035;49.978;8.298;2024-01-25T10:20:09;13.00;71.30
23713;DHT22;12035;49.978;8.298;2024-01-25T10:25:12;13.10;71.50
23713;DHT22;12035;49.978;8.298;2024-01-25T10:30:14;13.20;70.80
23713;DHT22;12035;49.978;8.298;2024-01-25T10:35:11;13.40;70.50
23713;DHT22;12035;49.978;8.298;2024-01-25T10:40:10;13.50;70.20
23713;DHT22;12035;49.978;8.298;2024-01-25T10:45:08;13.60;69.60
23713;DHT22;12035;49.978;8.298;2024-01-25T10:50:08;13.70;69.10
23713;DHT22;12035;49.978;8.298;2024-01-25T10:55:06;13.80;68.80
23713;DHT22;12035;49.978;8.298;2024-01-25T11:00:06;13.90;68.20
23713;DHT22;12035;49.978;8.298;2024-01-25T11:05:10;13.90;67.70
23713;DHT22;12035;49.978;8.298;2024-01-25T11:10:12;13.90;67.50
23713;DHT22;12035;49.978;8.298;2024-01-25T11:15:11;14.00;67.60
23713;DHT22;12035;49.978;8.298;2024-01-25T11:20:15;14.00;67.00
23713;DHT22;12035;49.978;8.298;2024-01-25T11:25:13;14.00;66.50
23713;DHT22;12035;49.978;8.298;2024-01-25T11:30:17;14.00;66.80
23713;DHT22;12035;49.978;8.298;2024-01-25T11:35:19;14.00;66.40
23713;DHT22;12035;49.978;8.298;2024-01-25T11:40:17;14.10;66.10
23713;DHT22;12035;49.978;8.298;2024-01-25T11:45:15;14.20;66.50
23713;DHT22;12035;49.978;8.298;2024-01-25T11:50:13;14.30;65.60
23713;DHT22;12035;49.978;8.298;2024-01-25T11:55:11;14.40;64.90
23713;DHT22;12035;49.978;8.298;2024-01-25T12:00:13;14.60;64.00
23713;DHT22;12035;49.978;8.298;2024-01-25T12:05:11;14.60;63.70
23713;DHT22;12035;49.978;8.298;2024-01-25T12:10:16;14.70;63.10
23713;DHT22;12035;49.978;8.298;2024-01-25T12:15:14;14.80;62.40
23713;DHT22;12035;49.978;8.298;2024-01-25T12:20:11;14.80;62.70
23713;DHT22;12035;49.978;8.298;2024-01-25T12:25:09;14.90;62.80
23713;DHT22;12035;49.978;8.298;2024-01-25T12:30:10;15.00;62.40
23713;DHT22;12035;49.978;8.298;2024-01-25T12:35:08;15.10;62.10
23713;DHT22;12035;49.978;8.298;2024-01-25T12:40:06;15.20;61.80
23713;DHT22;12035;49.978;8.298;2024-01-25T12:45:05;15.30;61.50
23713;DHT22;12035;49.978;8.298;2024-01-25T12:50:04;15.40;61.20
23713;DHT22;12035;49.978;8.298;2024-01-25T12:55:01;15.40;61.20
23713;DHT22;12035;49.978;8.298;2024-01-25T12:59:59;15.40;61.20
23713;DHT22;12035;49.978;8.298;2024-01-25T13:04:56;15.30;61.20
23713;DHT22;12035;49.978;8.298;2024-01-25T13:09:54;15.20;61.60
23713;DHT22;12035;49.978;8.298;2024-01-25T13:14:51;15.10;61.60
23713;DHT22;12035;49.978;8.298;2024-01-25T13:19:48;15.10;61.30
23713;DHT22;12035;49.978;8.298;2024-01-25T13:24:45;15.00;61.30
23713;DHT22;12035;49.978;8.298;2024-01-25T13:29:43;15.00;61.60
23713;DHT22;12035;49.978;8.298;2024-01-25T13:34:40;14.90;61.60
23713;DHT22;12035;49.978;8.298;2024-01-25T13:39:37;14.80;61.50
23713;DHT22;12035;49.978;8.298;2024-01-25T13:44:34;14.80;61.70
23713;DHT22;12035;49.978;8.298;2024-01-25T13:49:33;14.70;62.20
23713;DHT22;12035;49.978;8.298;2024-01-25T13:54:31;14.70;62.30
23713;DHT22;12035;49.978;8.298;2024-01-25T13:59:28;14.70;62.60
23713;DHT22;12035;49.978;8.298;2024-01-25T14:04:25;14.70;62.70
23713;DHT22;12035;49.978;8.298;2024-01-25T14:09:23;14.80;62.40
23713;DHT22;12035;49.978;8.298;2024-01-25T14:14:20;14.80;61.90
23713;DHT22;12035;49.978;8.298;2024-01-25T14:19:18;14.70;61.70
23713;DHT22;12035;49.978;8.298;2024-01-25T14:24:16;14.70;61.70
23713;DHT22;12035;49.978;8.298;2024-01-25T14:29:14;14.70;61.90
23713;DHT22;12035;49.978;8.298;2024-01-25T14:34:12;14.70;62.70
23713;DHT22;12035;49.978;8.298;2024-01-25T14:39:10;14.60;62.10
23713;DHT22;12035;49.978;8.298;2024-01-25T14:44:07;14.60;62.30
23713;DHT22;12035;49.978;8.298;2024-01-25T14:49:06;14.60;62.60
23713;DHT22;12035;49.978;8.298;2024-01-25T14:54:03;14.60;62.80
23713;DHT22;12035;49.978;8.298;2024-01-25T14:59:00;14.60;62.90
23713;DHT22;12035;49.978;8.298;2024-01-25T15:03:58;14.60;63.00
23713;DHT22;12035;49.978;8.298;2024-01-25T15:08:56;14.50;63.30
23713;DHT22;12035;49.978;8.298;2024-01-25T15:13:53;14.50;63.50
23713;DHT22;12035;49.978;8.298;2024-01-25T15:18:50;14.50;63.50
23713;DHT22;12035;49.978;8.298;2024-01-25T15:23:47;14.50;63.60
23713;DHT22;12035;49.978;8.298;2024-01-25T15:28:46;14.40;63.90
23713;DHT22;12035;49.978;8.298;2024-01-25T15:33:43;14.40;63.90
23713;DHT22;12035;49.978;8.298;2024-01-25T15:38:41;14.30;63.90
23713;DHT22;12035;49.978;8.298;2024-01-25T15:43:38;14.30;64.10
23713;DHT22;12035;49.978;8.298;2024-01-25T15:48:37;14.30;64.30
23713;DHT22;12035;49.978;8.298;2024-01-25T15:53:34;14.30;64.10
23713;DHT22;12035;49.978;8.298;2024-01-25T15:58:31;14.30;64.10
23713;DHT22;12035;49.978;8.298;2024-01-25T16:03:28;14.30;64.20
23713;DHT22;12035;49.978;8.298;2024-01-25T16:08:26;14.20;64.10
23713;DHT22;12035;49.978;8.298;2024-01-25T16:13:24;14.20;64.20
23713;DHT22;12035;49.978;8.298;2024-01-25T16:18:21;14.10;64.30
23713;DHT22;12035;49.978;8.298;2024-01-25T16:23:18;14.10;64.50
23713;DHT22;12035;49.978;8.298;2024-01-25T16:28:17;14.00;64.70
23713;DHT22;12035;49.978;8.298;2024-01-25T16:33:14;14.00;64.90
23713;DHT22;12035;49.978;8.298;2024-01-25T16:38:11;14.00;65.00
23713;DHT22;12035;49.978;8.298;2024-01-25T16:43:08;14.00;65.00
23713;DHT22;12035;49.978;8.298;2024-01-25T16:48:08;14.00;65.10
23713;DHT22;12035;49.978;8.298;2024-01-25T16:53:06;14.00;65.10
23713;DHT22;12035;49.978;8.298;2024-01-25T16:58:03;14.00;65.10
23713;DHT22;12035;49.978;8.298;2024-01-25T17:03:00;13.90;65.10
23713;DHT22;12035;49.978;8.298;2024-01-25T17:07:59;13.90;65.10
23713;DHT22;12035;49.978;8.298;2024-01-25T17:12:56;13.90;65.30
23713;DHT22;12035;49.978;8.298;2024-01-25T17:17:53;13.90;65.40
23713;DHT22;12035;49.978;8.298;2024-01-25T17:22:50;13.90;65.50
23713;DHT22;12035;49.978;8.298;2024-01-25T17:27:51;13.90;65.60
23713;DHT22;12035;49.978;8.298;2024-01-25T17:32:50;13.90;66.50
23713;DHT22;12035;49.978;8.298;2024-01-25T17:37:48;13.80;65.90
23713;DHT22;12035;49.978;8.298;2024-01-25T17:42:45;13.70;66.20
23713;DHT22;12035;49.978;8.298;2024-01-25T17:47:43;13.70;66.50
23713;DHT22;12035;49.978;8.298;2024-01-25T17:52:41;13.60;66.50
23713;DHT22;12035;49.978;8.298;2024-01-25T17:57:38;13.60;67.00
23713;DHT22;12035;49.978;8.298;2024-01-25T18:02:35;13.60;67.60
23713;DHT22;12035;49.978;8.298;2024-01-25T18:07:34;13.50;68.20
23713;DHT22;12035;49.978;8.298;2024-01-25T18:12:31;13.40;69.10
23713;DHT22;12035;49.978;8.298;2024-01-25T18:17:29;13.30;69.60
23713;DHT22;12035;49.978;8.298;2024-01-25T18:22:27;13.30;70.20
23713;DHT22;12035;49.978;8.298;2024-01-25T18:27:25;13.20;70.80
23713;DHT22;12035;49.978;8.298;2024-01-25T18:32:22;13.20;71.70
23713;DHT22;12035;49.978;8.298;2024-01-25T18:37:20;13.20;72.00
23713;DHT22;12035;49.978;8.298;2024-01-25T18:42:17;13.10;72.30
23713;DHT22;12035;49.978;8.298;2024-01-25T18:47:16;13.20;72.50
23713;DHT22;12035;49.978;8.298;2024-01-25T18:52:15;13.20;72.90
23713;DHT22;12035;49.978;8.298;2024-01-25T18:57:13;13.20;72.90
23713;DHT22;12035;49.978;8.298;2024-01-25T19:02:11;13.20;73.00
23713;DHT22;12035;49.978;8.298;2024-01-25T19:07:10;13.20;73.10
23713;DHT22;12035;49.978;8.298;2024-01-25T19:12:08;13.20;73.60
23713;DHT22;12035;49.978;8.298;2024-01-25T19:17:05;13.20;73.60
23713;DHT22;12035;49.978;8.298;2024-01-25T19:22:02;13.20;73.80
23713;DHT22;12035;49.978;8.298;2024-01-25T19:27:02;13.10;73.90
23713;DHT22;12035;49.978;8.298;2024-01-25T19:32:00;13.10;74.30
23713;DHT22;12035;49.978;8.298;2024-01-25T19:37:00;13.00;74.50
23713;DHT22;12035;49.978;8.298;2024-01-25T19:42:01;12.90;75.10
23713;DHT22;12035;49.978;8.298;2024-01-25T19:46:59;12.80;75.20
23713;DHT22;12035;49.978;8.298;2024-01-25T19:51:56;12.80;75.40
23713;DHT22;12035;49.978;8.298;2024-01-25T19:56:53;12.80;75.60
23713;DHT22;12035;49.978;8.298;2024-01-25T20:01:52;12.80;75.80
23713;DHT22;12035;49.978;8.298;2024-01-25T20:06:51;12.80;76.30
23713;DHT22;12035;49.978;8.298;2024-01-25T20:11:49;12.80;76.40
23713;DHT22;12035;49.978;8.298;2024-01-25T20:16:46;12.80;76.30
23713;DHT22;12035;49.978;8.298;2024-01-25T20:21:50;12.80;76.40
23713;DHT22;12035;49.978;8.298;2024-01-25T20:26:51;12.90;76.70
23713;DHT22;12035;49.978;8.298;2024-01-25T20:31:48;13.00;76.50
23713;DHT22;12035;49.978;8.298;2024-01-25T20:36:45;13.00;76.50
23713;DHT22;12035;49.978;8.298;2024-01-25T20:41:45;13.00;76.60
23713;DHT22;12035;49.978;8.298;2024-01-25T20:46:56;13.00;76.90
23713;DHT22;12035;49.978;8.298;2024-01-25T20:51:53;12.90;76.90
23713;DHT22;12035;49.978;8.298;2024-01-25T20:56:57;12.90;77.00
23713;DHT22;12035;49.978;8.298;2024-01-25T21:01:58;12.90;77.60
23713;DHT22;12035;49.978;8.298;2024-01-25T21:06:57;12.90;77.30
23713;DHT22;12035;49.978;8.298;2024-01-25T21:11:56;13.00;77.40
23713;DHT22;12035;49.978;8.298;2024-01-25T21:16:54;13.00;77.70
23713;DHT22;12035;49.978;8.298;2024-01-25T21:21:52;13.00;77.70
23713;DHT22;12035;49.978;8.298;2024-01-25T21:26:50;13.00;77.50
23713;DHT22;12035;49.978;8.298;2024-01-25T21:31:49;13.00;77.50
23713;DHT22;12035;49.978;8.298;2024-01-25T21:36:49;13.00;77.70
23713;DHT22;12035;49.978;8.298;2024-01-25T21:41:47;13.00;77.80
23713;DHT22;12035;49.978;8.298;2024-01-25T21:46:44;12.90;77.50
23713;DHT22;12035;49.978;8.298;2024-01-25T21:51:43;12.90;77.80
23713;DHT22;12035;49.978;8.298;2024-01-25T21:56:40;12.80;78.20
23713;DHT22;12035;49.978;8.298;2024-01-25T22:01:37;12.80;78.30
23713;DHT22;12035;49.978;8.298;2024-01-25T22:06:34;12.80;78.60
23713;DHT22;12035;49.978;8.298;2024-01-25T22:11:33;12.70;78.70
23713;DHT22;12035;49.978;8.298;2024-01-25T22:16:30;12.60;79.80
23713;DHT22;12035;49.978;8.298;2024-01-25T22:21:27;12.70;79.10
23713;DHT22;12035;49.978;8.298;2024-01-25T22:26:23;12.70;79.20
23713;DHT22;12035;49.978;8.298;2024-01-25T22:31:22;12.70;79.30
23713;DHT22;12035;49.978;8.298;2024-01-25T22:36:19;12.70;79.30
23713;DHT22;12035;49.978;8.298;2024-01-25T22:41:16;12.80;79.30
23713;DHT22;12035;49.978;8.298;2024-01-25T22:46:13;12.80;79.30
23713;DHT22;12035;49.978;8.298;2024-01-25T22:51:11;12.80;79.30
23713;DHT22;12035;49.978;8.298;2024-01-25T22:56:09;12.80;79.50
23713;DHT22;12035;49.978;8.298;2024-01-25T23:01:05;12.90;79.30
23713;DHT22;12035;49.978;8.298;2024-01-25T23:06:03;12.90;79.30
23713;DHT22;12035;49.978;8.298;2024-01-25T23:11:02;12.90;79.50
23713;DHT22;12035;49.978;8.298;2024-01-25T23:16:00;12.90;79.60
23713;DHT22;12035;49.978;8.298;2024-01-25T23:20:58;12.90;79.50
23713;DHT22;12035;49.978;8.298;2024-01-25T23:25:55;12.90;79.50
23713;DHT22;12035;49.978;8.298;2024-01-25T23:30:54;12.90;79.50
23713;DHT22;12035;49.978;8.298;2024-01-25T23:35:51;13.00;79.60
23713;DHT22;12035;49.978;8.298;2024-01-25T23:40:48;13.00;79.50
23713;DHT22;12035;49.978;8.298;2024-01-25T23:45:45;12.90;79.50
23713;DHT22;12035;49.978;8.298;2024-01-25T23:50:43;13.00;79.60
23713;DHT22;12035;49.978;8.298;2024-01-25T23:55:41;12.90;79.70
